sensor_id;sensor_type;location;lat;lon;timestamp;pressure;altitude;pressure_sealevel;temperature;humidity
25238;BME280;13185;50.872;5.306;2022-07-24T00:00:09;101546.16;;;19.42;83.15
25238;BME280;13185;50.872;5.306;2022-07-24T00:02:37;101553.84;;;19.37;83.43
25238;BME280;13185;50.872;5.306;2022-07-24T00:05:03;101554.41;;;19.31;83.16
25238;BME280;13185;50.872;5.306;2022-07-24T00:07:29;101555.56;;;19.28;83.60
25238;BME280;13185;50.872;5.306;2022-07-24T00:09:54;101555.81;;;19.25;83.42
25238;BME280;13185;50.872;5.306;2022-07-24T00:12:20;101549.97;;;19.20;83.68
25238;BME280;13185;50.872;5.306;2022-07-24T00:14:46;101553.81;;;19.18;84.25
25238;BME280;13185;50.872;5.306;2022-07-24T00:17:11;101555.06;;;19.14;84.61
25238;BME280;13185;50.872;5.306;2022-07-24T00:19:37;101561.78;;;19.10;84.46
25238;BME280;13185;50.872;5.306;2022-07-24T00:22:05;101551.19;;;19.07;84.64
25238;BME280;13185;50.872;5.306;2022-07-24T00:24:30;101552.31;;;19.04;84.83
25238;BME280;13185;50.872;5.306;2022-07-24T00:26:56;101559.03;;;19.00;84.84
25238;BME280;13185;50.872;5.306;2022-07-24T00:29:21;101552.13;;;18.96;84.83
25238;BME280;13185;50.872;5.306;2022-07-24T00:31:47;101553.28;;;18.93;85.10
25238;BME280;13185;50.872;5.306;2022-07-24T00:34:12;101549.25;;;18.88;85.09
25238;BME280;13185;50.872;5.306;2022-07-24T00:36:37;101556.09;;;18.82;85.37
25238;BME280;13185;50.872;5.306;2022-07-24T00:39:03;101558.81;;;18.82;85.54
25238;BME280;13185;50.872;5.306;2022-07-24T00:41:29;101563.66;;;18.79;86.19
25238;BME280;13185;50.872;5.306;2022-07-24T00:44:12;101569.78;;;18.71;86.69
25238;BME280;13185;50.872;5.306;2022-07-24T00:46:38;101574.63;;;18.67;85.90
25238;BME280;13185;50.872;5.306;2022-07-24T00:49:08;101577.47;;;18.66;85.90
25238;BME280;13185;50.872;5.306;2022-07-24T00:51:34;101577.47;;;18.66;84.97
25238;BME280;13185;50.872;5.306;2022-07-24T00:54:03;101572.03;;;18.66;84.67
25238;BME280;13185;50.872;5.306;2022-07-24T00:56:29;101576.63;;;18.65;84.76
25238;BME280;13185;50.872;5.306;2022-07-24T00:58:54;101574.97;;;18.63;84.76
25238;BME280;13185;50.872;5.306;2022-07-24T01:01:20;101573.81;;;18.56;85.15
25238;BME280;13185;50.872;5.306;2022-07-24T01:03:45;101568.38;;;18.56;84.71
25238;BME280;13185;50.872;5.306;2022-07-24T01:06:11;101567.75;;;18.52;85.54
25238;BME280;13185;50.872;5.306;2022-07-24T01:08:37;101568.75;;;18.51;85.64
25238;BME280;13185;50.872;5.306;2022-07-24T01:11:04;101564.47;;;18.49;85.78
25238;BME280;13185;50.872;5.306;2022-07-24T01:13:38;101562.25;;;18.42;86.06
25238;BME280;13185;50.872;5.306;2022-07-24T01:16:05;101557.97;;;18.40;86.06
25238;BME280;13185;50.872;5.306;2022-07-24T01:18:31;101560.81;;;18.38;86.09
25238;BME280;13185;50.872;5.306;2022-07-24T01:20:56;101564.53;;;18.37;85.87
25238;BME280;13185;50.872;5.306;2022-07-24T01:23:23;101562.09;;;18.34;85.90
25238;BME280;13185;50.872;5.306;2022-07-24T01:25:48;101560.47;;;18.32;85.48
25238;BME280;13185;50.872;5.306;2022-07-24T01:28:14;101564.19;;;18.31;86.01
25238;BME280;13185;50.872;5.306;2022-07-24T01:30:39;101564.75;;;18.25;86.36
25238;BME280;13185;50.872;5.306;2022-07-24T01:33:06;101575.13;;;18.20;86.20
25238;BME280;13185;50.872;5.306;2022-07-24T01:35:32;101571.09;;;18.14;86.68
25238;BME280;13185;50.872;5.306;2022-07-24T01:37:57;101575.66;;;18.13;86.54
25238;BME280;13185;50.872;5.306;2022-07-24T01:40:23;101566.91;;;18.10;86.71
25238;BME280;13185;50.872;5.306;2022-07-24T01:42:49;101571.59;;;18.08;87.16
25238;BME280;13185;50.872;5.306;2022-07-24T01:45:14;101568.16;;;18.06;86.87
25238;BME280;13185;50.872;5.306;2022-07-24T01:47:40;101564.72;;;18.04;86.92
25238;BME280;13185;50.872;5.306;2022-07-24T01:50:06;101567.66;;;18.01;86.66
25238;BME280;13185;50.872;5.306;2022-07-24T01:52:32;101566.09;;;17.98;86.41
25238;BME280;13185;50.872;5.306;2022-07-24T01:54:57;101562.50;;;17.98;86.59
25238;BME280;13185;50.872;5.306;2022-07-24T01:57:23;101554.50;;;17.96;86.91
25238;BME280;13185;50.872;5.306;2022-07-24T01:59:48;101561.78;;;17.96;87.10
25238;BME280;13185;50.872;5.306;2022-07-24T02:02:14;101562.06;;;17.93;87.33
25238;BME280;13185;50.872;5.306;2022-07-24T02:04:39;101563.88;;;17.92;87.28
25238;BME280;13185;50.872;5.306;2022-07-24T02:07:05;101565.00;;;17.89;87.52
25238;BME280;13185;50.872;5.306;2022-07-24T02:09:30;101565.16;;;17.88;87.64
25238;BME280;13185;50.872;5.306;2022-07-24T02:11:56;101562.69;;;17.85;87.30
25238;BME280;13185;50.872;5.306;2022-07-24T02:14:21;101561.13;;;17.82;87.65
25238;BME280;13185;50.872;5.306;2022-07-24T02:16:47;101560.34;;;17.80;87.60
25238;BME280;13185;50.872;5.306;2022-07-24T02:19:13;101559.50;;;17.80;87.32
25238;BME280;13185;50.872;5.306;2022-07-24T02:21:39;101561.47;;;17.78;88.00
25238;BME280;13185;50.872;5.306;2022-07-24T02:24:04;101559.75;;;17.77;88.29
25238;BME280;13185;50.872;5.306;2022-07-24T02:26:30;101548.91;;;17.77;88.41
25238;BME280;13185;50.872;5.306;2022-07-24T02:28:56;101559.03;;;17.75;88.54
25238;BME280;13185;50.872;5.306;2022-07-24T02:31:21;101563.59;;;17.74;88.60
25238;BME280;13185;50.872;5.306;2022-07-24T02:33:47;101569.16;;;17.73;88.94
25238;BME280;13185;50.872;5.306;2022-07-24T02:36:13;101562.22;;;17.69;89.20
25238;BME280;13185;50.872;5.306;2022-07-24T02:38:38;101566.78;;;17.68;89.19
25238;BME280;13185;50.872;5.306;2022-07-24T02:41:04;101564.19;;;17.67;89.48
25238;BME280;13185;50.872;5.306;2022-07-24T02:43:29;101565.47;;;17.63;89.99
25238;BME280;13185;50.872;5.306;2022-07-24T02:45:55;101562.13;;;17.59;89.91
25238;BME280;13185;50.872;5.306;2022-07-24T02:48:21;101565.81;;;17.58;90.73
25238;BME280;13185;50.872;5.306;2022-07-24T02:50:47;101572.25;;;17.57;90.62
25238;BME280;13185;50.872;5.306;2022-07-24T02:53:13;101571.38;;;17.56;90.83
25238;BME280;13185;50.872;5.306;2022-07-24T02:55:38;101568.94;;;17.53;90.64
25238;BME280;13185;50.872;5.306;2022-07-24T02:58:04;101568.94;;;17.53;91.07
25238;BME280;13185;50.872;5.306;2022-07-24T03:00:30;101575.72;;;17.48;91.53
25238;BME280;13185;50.872;5.306;2022-07-24T03:02:55;101579.66;;;17.44;91.47
25238;BME280;13185;50.872;5.306;2022-07-24T03:05:21;101589.66;;;17.43;91.55
25238;BME280;13185;50.872;5.306;2022-07-24T03:07:46;101577.22;;;17.41;91.73
25238;BME280;13185;50.872;5.306;2022-07-24T03:10:13;101590.41;;;17.34;91.84
25238;BME280;13185;50.872;5.306;2022-07-24T03:12:39;101593.38;;;17.31;92.69
25238;BME280;13185;50.872;5.306;2022-07-24T03:15:05;101583.75;;;17.27;93.84
25238;BME280;13185;50.872;5.306;2022-07-24T03:17:30;101583.88;;;17.25;93.83
25238;BME280;13185;50.872;5.306;2022-07-24T03:19:56;101586.59;;;17.25;94.30
25238;BME280;13185;50.872;5.306;2022-07-24T03:22:21;101581.16;;;17.25;94.44
25238;BME280;13185;50.872;5.306;2022-07-24T03:24:47;101578.47;;;17.25;94.28
25238;BME280;13185;50.872;5.306;2022-07-24T03:27:12;101577.00;;;17.21;94.96
25238;BME280;13185;50.872;5.306;2022-07-24T03:29:38;101577.00;;;17.21;95.20
25238;BME280;13185;50.872;5.306;2022-07-24T03:32:03;101568.00;;;17.21;95.47
25238;BME280;13185;50.872;5.306;2022-07-24T03:34:29;101569.97;;;17.19;95.85
25238;BME280;13185;50.872;5.306;2022-07-24T03:36:55;101567.63;;;17.14;96.91
25238;BME280;13185;50.872;5.306;2022-07-24T03:39:21;101574.03;;;17.13;97.01
25238;BME280;13185;50.872;5.306;2022-07-24T03:41:46;101570.59;;;17.11;97.64
25238;BME280;13185;50.872;5.306;2022-07-24T03:44:12;101574.19;;;17.12;97.56
25238;BME280;13185;50.872;5.306;2022-07-24T03:46:37;101575.03;;;17.12;97.70
25238;BME280;13185;50.872;5.306;2022-07-24T03:49:03;101578.59;;;17.13;97.91
25238;BME280;13185;50.872;5.306;2022-07-24T03:51:29;101571.47;;;17.12;97.98
25238;BME280;13185;50.872;5.306;2022-07-24T03:53:54;101566.28;;;17.09;98.49
25238;BME280;13185;50.872;5.306;2022-07-24T03:56:19;101560.50;;;17.02;98.87
25238;BME280;13185;50.872;5.306;2022-07-24T03:58:45;101560.00;;;16.97;99.46
25238;BME280;13185;50.872;5.306;2022-07-24T04:01:11;101562.97;;;16.94;99.52
25238;BME280;13185;50.872;5.306;2022-07-24T04:03:36;101558.53;;;16.93;100.00
25238;BME280;13185;50.872;5.306;2022-07-24T04:06:05;101563.94;;;16.93;100.00
25238;BME280;13185;50.872;5.306;2022-07-24T04:08:32;101566.41;;;16.96;99.64
25238;BME280;13185;50.872;5.306;2022-07-24T04:10:58;101571.69;;;16.97;98.98
25238;BME280;13185;50.872;5.306;2022-07-24T04:13:28;101568.00;;;16.98;99.15
25238;BME280;13185;50.872;5.306;2022-07-24T04:15:54;101556.94;;;17.01;98.94
25238;BME280;13185;50.872;5.306;2022-07-24T04:18:20;101558.91;;;16.99;99.09
25238;BME280;13185;50.872;5.306;2022-07-24T04:20:46;101554.34;;;17.00;99.18
25238;BME280;13185;50.872;5.306;2022-07-24T04:23:12;101550.66;;;17.01;99.46
25238;BME280;13185;50.872;5.306;2022-07-24T04:25:37;101559.50;;;17.03;99.46
25238;BME280;13185;50.872;5.306;2022-07-24T04:28:03;101565.53;;;17.07;99.67
25238;BME280;13185;50.872;5.306;2022-07-24T04:30:29;101563.56;;;17.09;99.60
25238;BME280;13185;50.872;5.306;2022-07-24T04:32:56;101562.34;;;17.13;99.37
25238;BME280;13185;50.872;5.306;2022-07-24T04:35:21;101554.94;;;17.15;99.55
25238;BME280;13185;50.872;5.306;2022-07-24T04:37:47;101554.69;;;17.18;99.19
25238;BME280;13185;50.872;5.306;2022-07-24T04:40:13;101565.41;;;17.19;99.10
25238;BME280;13185;50.872;5.306;2022-07-24T04:42:39;101562.59;;;17.21;99.08
25238;BME280;13185;50.872;5.306;2022-07-24T04:45:05;101566.88;;;17.23;99.06
25238;BME280;13185;50.872;5.306;2022-07-24T04:47:33;101569.34;;;17.26;98.81
25238;BME280;13185;50.872;5.306;2022-07-24T04:49:59;101568.22;;;17.29;98.66
25238;BME280;13185;50.872;5.306;2022-07-24T04:52:24;101580.69;;;17.31;98.81
25238;BME280;13185;50.872;5.306;2022-07-24T04:54:50;101582.28;;;17.34;98.82
25238;BME280;13185;50.872;5.306;2022-07-24T04:57:15;101574.00;;;17.36;98.80
25238;BME280;13185;50.872;5.306;2022-07-24T04:59:41;101576.47;;;17.39;99.00
25238;BME280;13185;50.872;5.306;2022-07-24T05:02:06;101580.66;;;17.43;98.67
25238;BME280;13185;50.872;5.306;2022-07-24T05:04:32;101575.56;;;17.49;98.46
25238;BME280;13185;50.872;5.306;2022-07-24T05:07:00;101575.09;;;17.55;98.54
25238;BME280;13185;50.872;5.306;2022-07-24T05:09:26;101564.47;;;17.64;98.38
25238;BME280;13185;50.872;5.306;2022-07-24T05:11:51;101569.41;;;17.70;98.05
25238;BME280;13185;50.872;5.306;2022-07-24T05:14:17;101566.19;;;17.76;98.29
25238;BME280;13185;50.872;5.306;2022-07-24T05:16:42;101571.97;;;17.82;97.96
25238;BME280;13185;50.872;5.306;2022-07-24T05:19:07;101575.72;;;17.91;97.82
25238;BME280;13185;50.872;5.306;2022-07-24T05:21:33;101561.16;;;18.03;97.01
25238;BME280;13185;50.872;5.306;2022-07-24T05:23:58;101558.63;;;18.11;96.65
25238;BME280;13185;50.872;5.306;2022-07-24T05:26:27;101551.25;;;18.23;96.66
25238;BME280;13185;50.872;5.306;2022-07-24T05:28:52;101552.53;;;18.40;96.26
25238;BME280;13185;50.872;5.306;2022-07-24T05:31:18;101549.59;;;18.53;95.15
25238;BME280;13185;50.872;5.306;2022-07-24T05:33:43;101557.59;;;18.65;95.07
25238;BME280;13185;50.872;5.306;2022-07-24T05:36:09;101560.66;;;18.82;93.97
25238;BME280;13185;50.872;5.306;2022-07-24T05:38:34;101557.72;;;18.94;93.19
25238;BME280;13185;50.872;5.306;2022-07-24T05:41:00;101553.91;;;19.07;92.79
25238;BME280;13185;50.872;5.306;2022-07-24T05:43:27;101554.78;;;19.17;92.55
25238;BME280;13185;50.872;5.306;2022-07-24T05:45:52;101562.59;;;19.31;92.34
25238;BME280;13185;50.872;5.306;2022-07-24T05:48:18;101563.63;;;19.40;91.30
25238;BME280;13185;50.872;5.306;2022-07-24T05:50:43;101563.91;;;19.46;90.77
25238;BME280;13185;50.872;5.306;2022-07-24T05:53:09;101572.56;;;19.61;90.74
25238;BME280;13185;50.872;5.306;2022-07-24T05:55:34;101563.66;;;19.69;90.30
25238;BME280;13185;50.872;5.306;2022-07-24T05:58:00;101572.00;;;19.77;89.74
25238;BME280;13185;50.872;5.306;2022-07-24T06:00:25;101572.56;;;19.90;89.42
25238;BME280;13185;50.872;5.306;2022-07-24T06:02:50;101572.88;;;20.06;88.94
25238;BME280;13185;50.872;5.306;2022-07-24T06:05:16;101577.59;;;20.24;88.44
25238;BME280;13185;50.872;5.306;2022-07-24T06:07:42;101581.44;;;20.31;87.98
25238;BME280;13185;50.872;5.306;2022-07-24T06:10:09;101583.94;;;20.43;87.67
25238;BME280;13185;50.872;5.306;2022-07-24T06:12:35;101590.34;;;20.52;86.59
25238;BME280;13185;50.872;5.306;2022-07-24T06:15:00;101597.06;;;20.67;86.54
25238;BME280;13185;50.872;5.306;2022-07-24T06:17:26;101598.28;;;20.83;85.68
25238;BME280;13185;50.872;5.306;2022-07-24T06:19:51;101600.72;;;20.95;84.69
25238;BME280;13185;50.872;5.306;2022-07-24T06:22:16;101596.53;;;21.01;84.07
25238;BME280;13185;50.872;5.306;2022-07-24T06:24:42;101592.19;;;21.08;83.99
25238;BME280;13185;50.872;5.306;2022-07-24T06:27:07;101585.38;;;21.22;83.69
25238;BME280;13185;50.872;5.306;2022-07-24T06:29:33;101592.38;;;21.34;83.17
25238;BME280;13185;50.872;5.306;2022-07-24T06:31:58;101597.50;;;21.47;82.80
25238;BME280;13185;50.872;5.306;2022-07-24T06:34:24;101593.44;;;21.51;81.55
25238;BME280;13185;50.872;5.306;2022-07-24T06:36:50;101597.38;;;21.66;81.25
25238;BME280;13185;50.872;5.306;2022-07-24T06:39:17;101596.69;;;21.82;80.88
25238;BME280;13185;50.872;5.306;2022-07-24T06:41:43;101593.56;;;21.95;80.10
25238;BME280;13185;50.872;5.306;2022-07-24T06:44:22;101586.72;;;22.08;77.92
25238;BME280;13185;50.872;5.306;2022-07-24T06:46:48;101584.28;;;22.05;76.92
25238;BME280;13185;50.872;5.306;2022-07-24T06:49:14;101577.22;;;22.12;76.83
25238;BME280;13185;50.872;5.306;2022-07-24T06:51:39;101586.72;;;22.26;75.82
25238;BME280;13185;50.872;5.306;2022-07-24T06:54:05;101577.81;;;22.42;75.97
25238;BME280;13185;50.872;5.306;2022-07-24T06:56:31;101577.47;;;22.63;75.29
25238;BME280;13185;50.872;5.306;2022-07-24T06:58:56;101574.97;;;22.77;74.63
25238;BME280;13185;50.872;5.306;2022-07-24T07:01:22;101574.25;;;22.93;73.60
25238;BME280;13185;50.872;5.306;2022-07-24T07:03:54;101566.16;;;23.18;73.32
25238;BME280;13185;50.872;5.306;2022-07-24T07:06:20;101567.41;;;23.31;72.12
25238;BME280;13185;50.872;5.306;2022-07-24T07:08:46;101567.09;;;23.35;71.26
25238;BME280;13185;50.872;5.306;2022-07-24T07:11:11;101568.84;;;23.52;70.62
25238;BME280;13185;50.872;5.306;2022-07-24T07:13:37;101570.81;;;23.68;70.83
25238;BME280;13185;50.872;5.306;2022-07-24T07:16:02;101570.84;;;23.84;69.56
25238;BME280;13185;50.872;5.306;2022-07-24T07:18:28;101570.84;;;23.92;69.73
25238;BME280;13185;50.872;5.306;2022-07-24T07:20:54;101568.66;;;24.12;68.85
25238;BME280;13185;50.872;5.306;2022-07-24T07:23:23;101566.06;;;24.27;67.44
25238;BME280;13185;50.872;5.306;2022-07-24T07:25:52;101556.13;;;24.17;66.70
25238;BME280;13185;50.872;5.306;2022-07-24T07:28:19;101570.53;;;24.11;67.30
25238;BME280;13185;50.872;5.306;2022-07-24T07:30:44;101562.47;;;24.26;66.28
25238;BME280;13185;50.872;5.306;2022-07-24T07:33:10;101561.47;;;24.43;66.27
25238;BME280;13185;50.872;5.306;2022-07-24T07:35:36;101554.22;;;24.67;66.72
25238;BME280;13185;50.872;5.306;2022-07-24T07:38:01;101559.03;;;24.73;64.47
25238;BME280;13185;50.872;5.306;2022-07-24T07:40:27;101556.31;;;24.57;64.22
25238;BME280;13185;50.872;5.306;2022-07-24T07:42:52;101552.03;;;24.62;64.18
25238;BME280;13185;50.872;5.306;2022-07-24T07:45:17;101555.41;;;24.81;63.45
25238;BME280;13185;50.872;5.306;2022-07-24T07:47:43;101557.78;;;24.92;63.13
25238;BME280;13185;50.872;5.306;2022-07-24T07:50:09;101560.38;;;25.01;63.29
25238;BME280;13185;50.872;5.306;2022-07-24T07:52:35;101566.66;;;25.10;61.87
25238;BME280;13185;50.872;5.306;2022-07-24T07:55:01;101564.81;;;25.02;62.22
25238;BME280;13185;50.872;5.306;2022-07-24T07:57:27;101564.22;;;25.23;61.77
25238;BME280;13185;50.872;5.306;2022-07-24T07:59:52;101561.00;;;25.43;61.16
25238;BME280;13185;50.872;5.306;2022-07-24T08:02:18;101564.91;;;25.56;61.17
25238;BME280;13185;50.872;5.306;2022-07-24T08:04:43;101565.97;;;25.47;59.04
25238;BME280;13185;50.872;5.306;2022-07-24T08:07:08;101553.72;;;25.27;59.31
25238;BME280;13185;50.872;5.306;2022-07-24T08:09:34;101555.56;;;24.87;60.88
25238;BME280;13185;50.872;5.306;2022-07-24T08:12:00;101549.78;;;24.74;61.51
25238;BME280;13185;50.872;5.306;2022-07-24T08:14:25;101540.88;;;24.64;62.52
25238;BME280;13185;50.872;5.306;2022-07-24T08:16:51;101549.78;;;24.66;63.71
25238;BME280;13185;50.872;5.306;2022-07-24T08:19:16;101553.72;;;24.71;62.90
25238;BME280;13185;50.872;5.306;2022-07-24T08:21:42;101555.25;;;24.74;61.51
25238;BME280;13185;50.872;5.306;2022-07-24T08:24:08;101555.44;;;24.72;61.34
25238;BME280;13185;50.872;5.306;2022-07-24T08:26:33;101547.88;;;24.74;61.23
25238;BME280;13185;50.872;5.306;2022-07-24T08:28:59;101544.47;;;24.72;60.78
25238;BME280;13185;50.872;5.306;2022-07-24T08:31:27;101545.16;;;24.66;60.61
25238;BME280;13185;50.872;5.306;2022-07-24T08:33:53;101538.97;;;24.72;62.09
25238;BME280;13185;50.872;5.306;2022-07-24T08:36:19;101544.75;;;24.86;61.94
25238;BME280;13185;50.872;5.306;2022-07-24T08:38:45;101541.16;;;24.93;62.00
25238;BME280;13185;50.872;5.306;2022-07-24T08:41:12;101549.69;;;24.98;60.98
25238;BME280;13185;50.872;5.306;2022-07-24T08:43:38;101545.72;;;25.01;59.85
25238;BME280;13185;50.872;5.306;2022-07-24T08:46:04;101544.88;;;25.00;59.15
25238;BME280;13185;50.872;5.306;2022-07-24T08:48:33;101537.38;;;25.02;59.35
25238;BME280;13185;50.872;5.306;2022-07-24T08:50:59;101531.34;;;25.07;58.73
25238;BME280;13185;50.872;5.306;2022-07-24T08:53:25;101539.53;;;25.15;58.17
25238;BME280;13185;50.872;5.306;2022-07-24T08:55:50;101536.06;;;25.21;58.68
25238;BME280;13185;50.872;5.306;2022-07-24T08:58:16;101531.22;;;25.31;57.54
25238;BME280;13185;50.872;5.306;2022-07-24T09:00:42;101530.66;;;25.44;57.54
25238;BME280;13185;50.872;5.306;2022-07-24T09:03:08;101533.28;;;25.60;57.50
25238;BME280;13185;50.872;5.306;2022-07-24T09:05:52;101536.81;;;25.77;56.29
25238;BME280;13185;50.872;5.306;2022-07-24T09:08:18;101533.47;;;25.90;56.48
25238;BME280;13185;50.872;5.306;2022-07-24T09:10:57;101521.00;;;26.02;54.33
25238;BME280;13185;50.872;5.306;2022-07-24T09:13:29;101530.75;;;26.05;54.42
25238;BME280;13185;50.872;5.306;2022-07-24T09:16:18;101524.59;;;26.03;54.31
25238;BME280;13185;50.872;5.306;2022-07-24T09:18:48;101533.88;;;26.02;53.58
25238;BME280;13185;50.872;5.306;2022-07-24T09:21:15;101536.59;;;25.87;54.29
25238;BME280;13185;50.872;5.306;2022-07-24T09:23:41;101523.56;;;25.81;55.14
25238;BME280;13185;50.872;5.306;2022-07-24T09:26:07;101525.16;;;25.75;54.94
25238;BME280;13185;50.872;5.306;2022-07-24T09:28:49;101520.53;;;25.68;54.93
25238;BME280;13185;50.872;5.306;2022-07-24T09:31:15;101519.34;;;25.70;54.95
25238;BME280;13185;50.872;5.306;2022-07-24T09:33:41;101511.78;;;25.72;54.00
25238;BME280;13185;50.872;5.306;2022-07-24T09:36:12;101508.00;;;25.73;53.23
25238;BME280;13185;50.872;5.306;2022-07-24T09:38:38;101506.63;;;25.69;53.25
25238;BME280;13185;50.872;5.306;2022-07-24T09:41:04;101513.16;;;25.68;54.28
25238;BME280;13185;50.872;5.306;2022-07-24T09:43:31;101510.72;;;25.73;53.50
25238;BME280;13185;50.872;5.306;2022-07-24T09:46:09;101502.34;;;25.75;53.35
25238;BME280;13185;50.872;5.306;2022-07-24T09:48:55;101493.06;;;25.76;53.12
25238;BME280;13185;50.872;5.306;2022-07-24T09:51:23;101493.06;;;25.76;52.10
25238;BME280;13185;50.872;5.306;2022-07-24T09:53:54;101489.75;;;25.80;52.64
25238;BME280;13185;50.872;5.306;2022-07-24T09:56:20;101490.06;;;25.85;52.72
25238;BME280;13185;50.872;5.306;2022-07-24T10:01:13;101485.84;;;25.98;51.77
25238;BME280;13185;50.872;5.306;2022-07-24T10:03:41;101486.31;;;26.01;51.54
25238;BME280;13185;50.872;5.306;2022-07-24T10:06:09;101471.53;;;26.02;51.49
25238;BME280;13185;50.872;5.306;2022-07-24T10:08:37;101480.16;;;26.14;52.18
25238;BME280;13185;50.872;5.306;2022-07-24T10:11:03;101468.50;;;26.12;50.07
25238;BME280;13185;50.872;5.306;2022-07-24T10:13:29;101479.22;;;26.07;50.78
25238;BME280;13185;50.872;5.306;2022-07-24T10:18:52;101473.56;;;26.23;50.48
25238;BME280;13185;50.872;5.306;2022-07-24T10:29:14;101459.94;;;26.30;50.89
25238;BME280;13185;50.872;5.306;2022-07-24T10:31:58;101461.91;;;26.36;50.25
25238;BME280;13185;50.872;5.306;2022-07-24T10:34:36;101465.19;;;26.39;49.94
25238;BME280;13185;50.872;5.306;2022-07-24T10:53:29;101444.88;;;26.85;49.14
25238;BME280;13185;50.872;5.306;2022-07-24T10:59:10;101435.38;;;27.02;48.79
25238;BME280;13185;50.872;5.306;2022-07-24T11:01:43;101433.28;;;27.04;48.03
25238;BME280;13185;50.872;5.306;2022-07-24T11:09:16;101417.50;;;27.13;47.66
25238;BME280;13185;50.872;5.306;2022-07-24T11:14:17;101415.75;;;27.26;47.93
25238;BME280;13185;50.872;5.306;2022-07-24T11:16:43;101418.94;;;27.30;47.43
25238;BME280;13185;50.872;5.306;2022-07-24T11:21:39;101418.25;;;27.43;47.57
25238;BME280;13185;50.872;5.306;2022-07-24T11:27:04;101413.94;;;27.55;46.81
25238;BME280;13185;50.872;5.306;2022-07-24T11:29:36;101411.81;;;27.57;47.62
25238;BME280;13185;50.872;5.306;2022-07-24T11:32:05;101405.34;;;27.65;47.90
25238;BME280;13185;50.872;5.306;2022-07-24T11:34:34;101406.97;;;27.80;47.14
25238;BME280;13185;50.872;5.306;2022-07-24T11:37:00;101411.09;;;27.91;48.11
25238;BME280;13185;50.872;5.306;2022-07-24T11:39:39;101406.06;;;28.01;47.30
25238;BME280;13185;50.872;5.306;2022-07-24T11:42:07;101398.09;;;28.13;47.93
25238;BME280;13185;50.872;5.306;2022-07-24T11:44:38;101400.13;;;28.26;48.22
25238;BME280;13185;50.872;5.306;2022-07-24T11:47:10;101386.44;;;28.39;47.03
25238;BME280;13185;50.872;5.306;2022-07-24T11:49:40;101381.13;;;28.44;46.42
25238;BME280;13185;50.872;5.306;2022-07-24T11:52:05;101386.06;;;28.49;46.01
25238;BME280;13185;50.872;5.306;2022-07-24T11:54:31;101387.97;;;28.48;45.09
25238;BME280;13185;50.872;5.306;2022-07-24T11:56:56;101383.88;;;28.44;45.68
25238;BME280;13185;50.872;5.306;2022-07-24T11:59:24;101386.06;;;28.49;46.42
25238;BME280;13185;50.872;5.306;2022-07-24T12:01:50;101393.34;;;28.63;45.42
25238;BME280;13185;50.872;5.306;2022-07-24T12:04:19;101386.13;;;28.62;44.74
25238;BME280;13185;50.872;5.306;2022-07-24T12:06:46;101375.34;;;28.73;45.34
25238;BME280;13185;50.872;5.306;2022-07-24T12:09:12;101364.53;;;28.85;44.75
25238;BME280;13185;50.872;5.306;2022-07-24T12:11:37;101364.63;;;28.98;44.84
25238;BME280;13185;50.872;5.306;2022-07-24T12:14:13;101358.91;;;29.07;44.86
25238;BME280;13185;50.872;5.306;2022-07-24T12:16:40;101354.66;;;29.17;44.79
25238;BME280;13185;50.872;5.306;2022-07-24T12:21:43;101351.09;;;29.37;44.19
25238;BME280;13185;50.872;5.306;2022-07-24T12:24:09;101351.09;;;29.43;43.13
25238;BME280;13185;50.872;5.306;2022-07-24T12:26:54;101351.53;;;29.40;42.75
25238;BME280;13185;50.872;5.306;2022-07-24T12:29:20;101336.00;;;29.46;42.62
25238;BME280;13185;50.872;5.306;2022-07-24T12:31:46;101330.97;;;29.49;42.67
25238;BME280;13185;50.872;5.306;2022-07-24T12:34:12;101333.94;;;29.54;43.50
25238;BME280;13185;50.872;5.306;2022-07-24T12:36:39;101334.34;;;29.65;42.46
25238;BME280;13185;50.872;5.306;2022-07-24T12:39:06;101336.91;;;29.73;42.21
25238;BME280;13185;50.872;5.306;2022-07-24T12:41:41;101332.44;;;29.72;42.28
25238;BME280;13185;50.872;5.306;2022-07-24T12:44:07;101323.94;;;29.73;42.04
25238;BME280;13185;50.872;5.306;2022-07-24T12:46:37;101318.59;;;29.85;41.73
25238;BME280;13185;50.872;5.306;2022-07-24T12:51:58;101302.63;;;30.07;41.82
25238;BME280;13185;50.872;5.306;2022-07-24T12:54:28;101295.97;;;30.21;42.20
25238;BME280;13185;50.872;5.306;2022-07-24T12:57:00;101303.19;;;30.29;42.11
25238;BME280;13185;50.872;5.306;2022-07-24T12:59:31;101297.63;;;30.35;41.41
25238;BME280;13185;50.872;5.306;2022-07-24T13:02:02;101288.22;;;30.43;41.86
25238;BME280;13185;50.872;5.306;2022-07-24T13:04:29;101283.88;;;30.60;40.92
25238;BME280;13185;50.872;5.306;2022-07-24T13:06:59;101288.94;;;30.77;41.04
25238;BME280;13185;50.872;5.306;2022-07-24T13:09:26;101281.44;;;30.84;40.51
25238;BME280;13185;50.872;5.306;2022-07-24T13:11:54;101285.59;;;30.99;40.92
25238;BME280;13185;50.872;5.306;2022-07-24T13:14:22;101281.50;;;31.09;40.51
25238;BME280;13185;50.872;5.306;2022-07-24T13:16:50;101277.34;;;31.24;40.72
25238;BME280;13185;50.872;5.306;2022-07-24T13:19:16;101271.78;;;31.24;40.33
25238;BME280;13185;50.872;5.306;2022-07-24T13:21:43;101265.63;;;31.22;40.74
25238;BME280;13185;50.872;5.306;2022-07-24T13:24:10;101262.31;;;31.39;40.87
25238;BME280;13185;50.872;5.306;2022-07-24T13:26:36;101255.88;;;31.63;39.99
25238;BME280;13185;50.872;5.306;2022-07-24T13:29:03;101254.13;;;31.69;39.43
25238;BME280;13185;50.872;5.306;2022-07-24T13:31:29;101247.88;;;31.73;39.54
25238;BME280;13185;50.872;5.306;2022-07-24T13:33:55;101240.38;;;31.99;40.82
25238;BME280;13185;50.872;5.306;2022-07-24T13:36:20;101248.78;;;32.10;39.04
25238;BME280;13185;50.872;5.306;2022-07-24T13:38:46;101244.16;;;32.04;38.71